Time;durP1;ratioP1;P1;durP2;ratioP2;P2;SDS_P1;SDS_P2;PMS_P1;PMS_P2;Temp;Humidity;BMP_temperature;BMP_pressure;BME280_temperature;BME280_humidity;BME280_pressure;Samples;Min_cycle;Max_cycle;Signal;HPM_P1;HPM_P2
2021/07/05 00:02:56;;;;;;;3.38;2.38;;;21.30;65.50;;;;;;5068293;28;20036;-91
2021/07/05 00:06:35;;;;;;;2.05;1.80;;;21.20;65.40;;;;;;5062797;28;20063;-90
2021/07/05 00:13:41;;;;;;;2.08;1.88;;;21.20;65.50;;;;;;5028776;28;20038;-91
2021/07/05 00:20:40;;;;;;;2.50;2.20;;;21.10;65.50;;;;;;5080782;28;20035;-91
2021/07/05 00:23:21;;;;;;;2.78;2.28;;;21.10;65.70;;;;;;5005126;28;20493;-90
2021/07/05 00:26:26;;;;;;;3.33;2.53;;;21.10;65.60;;;;;;5087487;28;20040;-90
2021/07/05 00:32:15;;;;;;;2.72;2.40;;;21.00;65.60;;;;;;5087483;28;20115;-90
2021/07/05 00:35:29;;;;;;;3.03;2.33;;;21.00;65.70;;;;;;5074884;28;20040;-89
2021/07/05 00:38:49;;;;;;;2.63;2.17;;;21.00;65.90;;;;;;5052504;28;20032;-90
2021/07/05 00:41:39;;;;;;;2.55;2.15;;;20.90;65.90;;;;;;5052388;28;20071;-91
2021/07/05 00:44:43;;;;;;;4.00;2.15;;;20.90;65.70;;;;;;5081182;28;20499;-90
2021/07/05 00:47:39;;;;;;;2.30;2.05;;;20.90;65.90;;;;;;5090818;28;20042;-90
2021/07/05 00:50:40;;;;;;;2.97;2.35;;;20.90;65.90;;;;;;5060517;28;20123;-89
2021/07/05 00:54:00;;;;;;;;;;;;;;;;;;;;;
2021/07/05 00:57:19;;;;;;;2.70;2.40;;;20.90;66.00;;;;;;5090169;28;20286;-91
2021/07/05 01:00:25;;;;;;;2.58;2.03;;;20.80;66.00;;;;;;5052967;28;20131;-91
2021/07/05 01:03:11;;;;;;;2.40;1.80;;;20.80;66.00;;;;;;5080741;28;20039;-90
2021/07/05 01:05:51;;;;;;;2.45;2.20;;;20.80;66.20;;;;;;5074571;28;20044;-90
2021/07/05 01:12:38;;;;;;;2.10;1.90;;;20.80;66.30;;;;;;5040532;28;20028;-90
2021/07/05 01:18:53;;;;;;;1.88;1.65;;;20.70;66.10;;;;;;5062700;28;20086;-89
2021/07/05 01:21:46;;;;;;;1.40;1.30;;;20.70;66.20;;;;;;5048225;28;20036;-91
2021/07/05 01:28:02;;;;;;;2.22;1.83;;;20.70;66.40;;;;;;5033137;28;20143;-90
2021/07/05 01:30:40;;;;;;;2.50;1.95;;;20.70;66.40;;;;;;5057422;28;20488;-90
2021/07/05 01:33:54;;;;;;;;;;;;;;;;;;;;;
2021/07/05 01:37:17;;;;;;;1.67;1.52;;;20.60;66.30;;;;;;5091767;28;20036;-90
2021/07/05 01:40:08;;;;;;;1.40;1.30;;;20.60;66.40;;;;;;5096170;28;20028;-90
2021/07/05 01:43:03;;;;;;;1.95;1.75;;;20.60;66.40;;;;;;5096112;28;20031;-90
2021/07/05 01:46:07;;;;;;;1.85;1.45;;;20.60;66.50;;;;;;5075052;28;20044;-90
2021/07/05 01:52:22;;;;;;;1.90;1.70;;;20.50;66.60;;;;;;5057208;28;20029;-89
2021/07/05 01:54:55;;;;;;;2.40;1.52;;;20.60;66.60;;;;;;5015768;28;20055;-90
2021/07/05 01:57:35;;;;;;;1.50;1.40;;;20.60;66.50;;;;;;5057351;28;20037;-91
2021/07/05 02:00:40;;;;;;;2.03;1.70;;;20.50;66.50;;;;;;5051572;28;20123;-91
2021/07/05 02:04:10;;;;;;;1.65;1.50;;;20.50;66.70;;;;;;5037580;28;20516;-90
2021/07/05 02:08:07;;;;;;;;;;;;;;;;;;;;;
2021/07/05 02:10:33;;;;;;;1.40;1.30;;;20.40;66.60;;;;;;5024479;28;20118;-91
2021/07/05 02:13:44;;;;;;;1.75;1.50;;;20.50;66.60;;;;;;5056942;28;20498;-91
2021/07/05 02:16:40;;;;;;;1.38;1.27;;;20.50;66.80;;;;;;5072042;28;20078;-92
2021/07/05 02:23:10;;;;;;;1.70;1.23;;;20.40;66.70;;;;;;5070564;28;20032;-91
2021/07/05 02:26:29;;;;;;;;;;;;;;;;;;;;;
2021/07/05 02:33:23;;;;;;;1.77;1.27;;;20.40;66.70;;;;;;5072854;28;20086;-91
2021/07/05 02:36:26;;;;;;;1.48;1.33;;;20.30;66.80;;;;;;5046975;28;20560;-91
2021/07/05 02:39:29;;;;;;;4.10;1.50;;;20.40;66.90;;;;;;5074980;28;20036;-91
2021/07/05 02:45:57;;;;;;;1.35;1.25;;;20.30;66.80;;;;;;5059204;28;20094;-91
2021/07/05 02:51:48;;;;;;;1.95;1.42;;;20.30;66.80;;;;;;5084146;28;20028;-90
2021/07/05 02:54:37;;;;;;;1.52;1.27;;;20.30;66.90;;;;;;5060263;28;20032;-90
2021/07/05 02:57:36;;;;;;;2.05;1.70;;;20.20;66.80;;;;;;5075949;28;20052;-91
2021/07/05 03:00:26;;;;;;;2.50;1.60;;;20.20;67.00;;;;;;5091246;28;20074;-91
2021/07/05 03:07:33;;;;;;;1.40;1.30;;;20.20;67.10;;;;;;5064700;28;20388;-91
2021/07/05 03:10:28;;;;;;;1.35;1.20;;;20.20;67.10;;;;;;5070577;28;20063;-90
2021/07/05 03:13:17;;;;;;;1.67;1.50;;;20.20;67.00;;;;;;5094554;28;20035;-90
2021/07/05 03:15:56;;;;;;;1.60;1.50;;;20.20;67.20;;;;;;5070988;28;20064;-90
2021/07/05 03:18:27;;;;;;;2.55;1.55;;;20.20;67.10;;;;;;5049791;28;20033;-90
2021/07/05 03:21:21;;;;;;;;;;;;;;;;;;;;;
2021/07/05 03:24:15;;;;;;;1.40;1.30;;;20.20;67.20;;;;;;5066826;28;20119;-90
2021/07/05 03:26:59;;;;;;;1.85;1.67;;;20.20;67.30;;;;;;5061860;28;20127;-89
2021/07/05 03:30:09;;;;;;;1.40;1.30;;;20.20;67.30;;;;;;5093994;28;20104;-90
2021/07/05 03:32:57;;;;;;;1.40;1.30;;;20.10;67.30;;;;;;5062011;28;20109;-89
2021/07/05 03:38:56;;;;;;;1.50;1.40;;;20.10;67.30;;;;;;5093539;28;20048;-89
2021/07/05 03:41:34;;;;;;;1.30;1.20;;;20.10;67.20;;;;;;5058532;28;20032;-89
2021/07/05 03:44:25;;;;;;;1.95;1.50;;;20.10;67.30;;;;;;5086064;28;20054;-90
2021/07/05 03:47:16;;;;;;;1.60;1.50;;;20.10;67.30;;;;;;5060572;28;20082;-90
2021/07/05 03:50:03;;;;;;;;;;;20.10;67.40;;;;;;5093781;28;20058;-90
2021/07/05 03:53:14;;;;;;;1.75;1.35;;;20.10;67.10;;;;;;5071698;28;19908;-90
2021/07/05 03:56:13;;;;;;;2.17;1.50;;;20.10;67.30;;;;;;5069044;28;20040;-91
2021/07/05 03:58:46;;;;;;;1.25;1.15;;;20.10;67.40;;;;;;5054458;28;20045;-90
2021/07/05 04:01:18;;;;;;;1.60;1.48;;;20.00;67.30;;;;;;5026415;28;20504;-90
2021/07/05 04:03:44;;;;;;;1.63;1.48;;;20.10;67.50;;;;;;4999530;28;20545;-90
2021/07/05 04:06:10;;;;;;;2.15;1.50;;;20.10;67.40;;;;;;4994650;28;20156;-90
2021/07/05 04:08:39;;;;;;;1.80;1.25;;;20.10;68.10;;;;;;5015426;28;20045;-90
2021/07/05 04:11:05;;;;;;;1.40;1.30;;;20.10;67.50;;;;;;4997723;28;20042;-90
2021/07/05 04:13:33;;;;;;;1.40;1.30;;;20.10;67.50;;;;;;5007514;28;20085;-88
2021/07/05 04:16:00;;;;;;;1.70;1.60;;;20.10;67.50;;;;;;4990892;28;20045;-90
2021/07/05 04:18:26;;;;;;;1.70;1.60;;;20.10;67.50;;;;;;5007143;28;20048;-91
2021/07/05 04:20:52;;;;;;;2.25;1.70;;;20.10;67.50;;;;;;5030048;28;20036;-89
2021/07/05 04:23:19;;;;;;;1.63;1.50;;;20.10;67.50;;;;;;5045099;28;20469;-91
2021/07/05 04:25:45;;;;;;;1.67;1.27;;;20.10;67.50;;;;;;5036672;28;20025;-86
2021/07/05 04:28:11;;;;;;;1.60;1.48;;;20.10;67.50;;;;;;5055148;28;20518;-89
2021/07/05 04:30:43;;;;;;;2.08;1.33;;;20.10;67.50;;;;;;5043204;28;20035;-85
2021/07/05 04:33:09;;;;;;;1.25;1.13;;;20.10;67.60;;;;;;5059597;28;20035;-89
2021/07/05 04:35:35;;;;;;;1.50;1.30;;;20.10;67.50;;;;;;5059950;28;20028;-89
2021/07/05 04:38:01;;;;;;;1.67;1.40;;;20.10;67.50;;;;;;5051872;28;20159;-90
2021/07/05 04:40:34;;;;;;;1.38;1.27;;;20.00;67.50;;;;;;5039389;28;20029;-90
2021/07/05 04:43:01;;;;;;;1.98;1.45;;;20.00;67.50;;;;;;5039781;28;20025;-88
2021/07/05 04:45:29;;;;;;;2.33;1.30;;;20.00;67.50;;;;;;5039368;28;20024;-90
2021/07/05 04:47:57;;;;;;;1.48;1.35;;;20.00;67.50;;;;;;5056079;28;20033;-90
2021/07/05 04:50:23;;;;;;;1.42;1.30;;;20.00;67.50;;;;;;5039329;28;20048;-90
2021/07/05 04:52:49;;;;;;;2.10;1.30;;;20.00;67.50;;;;;;5037663;28;20025;-91
2021/07/05 04:55:17;;;;;;;1.40;1.17;;;20.00;67.50;;;;;;5019369;28;20033;-90
2021/07/05 04:57:44;;;;;;;1.35;1.00;;;20.00;67.50;;;;;;5027508;28;20079;-89
2021/07/05 05:00:31;;;;;;;2.08;1.15;;;20.00;67.50;;;;;;5018932;28;20025;-91
2021/07/05 05:02:59;;;;;;;1.30;0.90;;;20.00;67.50;;;;;;5042426;28;20036;-90
2021/07/05 05:05:25;;;;;;;1.20;1.08;;;19.90;67.40;;;;;;5039251;28;20028;-91
2021/07/05 05:07:51;;;;;;;1.05;0.98;;;19.90;67.40;;;;;;5035658;28;20118;-89
2021/07/05 05:10:23;;;;;;;1.50;1.08;;;19.90;67.50;;;;;;5039213;28;20017;-92
2021/07/05 05:12:50;;;;;;;1.95;1.00;;;19.90;67.50;;;;;;5072052;28;20024;-87
2021/07/05 05:15:17;;;;;;;1.63;1.13;;;19.90;67.50;;;;;;5038211;28;20059;-92
2021/07/05 05:17:44;;;;;;;1.33;1.00;;;19.90;67.50;;;;;;5055708;28;20049;-92
2021/07/05 05:20:11;;;;;;;1.35;1.10;;;19.90;67.50;;;;;;5038535;28;20361;-92
2021/07/05 05:23:19;;;;;;;1.23;1.02;;;19.90;67.50;;;;;;5055762;28;20039;-92
2021/07/05 05:25:48;;;;;;;1.30;1.00;;;19.90;67.70;;;;;;5055008;28;20040;-92
2021/07/05 05:28:14;;;;;;;1.00;1.00;;;19.90;67.50;;;;;;5055462;28;20171;-92
2021/07/05 05:30:43;;;;;;;1.70;1.00;;;19.80;67.50;;;;;;5071787;28;20028;-92
2021/07/05 05:33:09;;;;;;;1.10;0.93;;;19.80;67.50;;;;;;5071906;28;20032;-93
2021/07/05 05:35:35;;;;;;;1.20;1.05;;;19.80;67.50;;;;;;5055447;28;20051;-93
2021/07/05 05:38:01;;;;;;;1.40;1.02;;;19.80;67.50;;;;;;5055444;28;20035;-93
2021/07/05 05:40:27;;;;;;;1.80;1.00;;;19.80;67.60;;;;;;5055569;28;20033;-93
2021/07/05 05:42:54;;;;;;;1.35;1.23;;;19.80;67.60;;;;;;5054939;28;20021;-94
2021/07/05 05:45:21;;;;;;;1.00;1.00;;;19.70;67.50;;;;;;5071087;28;20024;-92
2021/07/05 05:47:47;;;;;;;1.92;1.20;;;19.70;67.60;;;;;;5055033;28;20021;-91
2021/07/05 05:50:14;;;;;;;1.40;1.00;;;19.80;67.70;;;;;;5054412;28;20035;-92
2021/07/05 05:52:41;;;;;;;1.30;1.08;;;19.80;67.70;;;;;;5055283;28;20024;-92
2021/07/05 05:55:08;;;;;;;1.27;1.10;;;19.70;67.60;;;;;;5071273;28;20033;-89
2021/07/05 05:57:36;;;;;;;1.23;1.10;;;19.80;67.70;;;;;;5055037;28;20028;-87
2021/07/05 06:00:10;;;;;;;1.80;1.00;;;19.70;67.70;;;;;;5071833;28;20024;-88
2021/07/05 06:02:36;;;;;;;1.27;1.15;;;19.70;67.70;;;;;;5056987;28;20044;-87
2021/07/05 06:05:02;;;;;;;1.20;1.10;;;19.70;67.70;;;;;;5038318;28;20029;-87
2021/07/05 06:07:27;;;;;;;1.10;1.10;;;19.70;67.70;;;;;;5038593;28;20044;-86
2021/07/05 06:09:53;;;;;;;1.45;1.10;;;19.70;67.70;;;;;;5038656;28;20127;-88
2021/07/05 06:12:20;;;;;;;1.98;1.35;;;19.70;67.80;;;;;;5038438;28;20021;-87
2021/07/05 06:14:46;;;;;;;1.98;1.30;;;19.70;67.80;;;;;;5040559;28;20024;-87
2021/07/05 06:17:12;;;;;;;1.08;1.00;;;19.70;67.90;;;;;;5041813;28;20526;-86
2021/07/05 06:19:38;;;;;;;2.03;1.38;;;19.70;67.90;;;;;;5042150;28;20029;-86
2021/07/05 06:22:12;;;;;;;1.30;1.13;;;19.70;67.90;;;;;;5042079;28;20036;-86
2021/07/05 06:24:38;;;;;;;;;;;19.70;67.90;;;;;;5042191;28;20067;-88
2021/07/05 06:27:05;;;;;;;1.02;0.93;;;19.60;67.70;;;;;;5041960;28;19916;-87
2021/07/05 06:29:30;;;;;;;1.33;1.20;;;19.60;67.70;;;;;;5057942;28;20112;-87
2021/07/05 06:31:56;;;;;;;1.45;1.25;;;19.60;67.90;;;;;;5041616;28;20062;-88
2021/07/05 06:34:25;;;;;;;1.60;1.20;;;19.60;68.00;;;;;;5041756;28;20388;-85
2021/07/05 06:46:18;;;;;;;;;;;;;;;;;;;;;
2021/07/05 06:50:15;;;;;;;1.35;1.00;;;19.60;68.10;;;;;;4933276;28;20641;-91
2021/07/05 07:16:08;;;;;;;1.17;1.08;;;19.50;68.30;;;;;;5045415;28;20058;-91
2021/07/05 07:19:43;;;;;;;1.30;1.20;;;19.50;68.20;;;;;;5075364;28;20044;-90
2021/07/05 07:29:04;;;;;;;2.03;1.40;;;19.50;68.40;;;;;;5053070;28;20052;-91
2021/07/05 07:32:19;;;;;;;;;;;;;;;;;;;;;
2021/07/05 07:35:33;;;;;;;1.40;1.30;;;19.50;68.50;;;;;;5055039;28;20067;-91
2021/07/05 07:43:28;;;;;;;1.88;1.42;;;19.50;68.50;;;;;;4967166;28;20069;-91
2021/07/05 07:47:11;;;;;;;2.28;1.70;;;19.50;68.50;;;;;;4888663;29;20517;-90
2021/07/05 09:05:12;;;;;;;2.38;1.50;;;20.10;68.70;;;;;;5014589;28;20083;-85
2021/07/05 09:08:19;;;;;;;2.10;1.73;;;20.10;68.50;;;;;;5030441;28;20028;-89
2021/07/05 09:10:49;;;;;;;3.13;1.60;;;20.20;68.80;;;;;;4995360;28;20073;-87
2021/07/05 09:13:19;;;;;;;1.88;1.63;;;20.30;68.60;;;;;;4983195;28;20046;-88
2021/07/05 09:17:04;;;;;;;;;;;;;;;;;;;;;
2021/07/05 09:20:53;;;;;;;2.00;1.60;;;20.40;68.80;;;;;;4972207;28;20031;-90
2021/07/05 09:36:08;;;;;;;2.78;1.80;;;20.60;68.40;;;;;;4910087;29;20100;-90
2021/07/05 10:04:21;;;;;;;;;;;;;;;;;;;;;
2021/07/05 10:26:49;;;;;;;1.40;1.25;;;21.20;67.80;;;;;;4907180;29;20826;-87
2021/07/05 10:29:17;;;;;;;2.10;1.52;;;21.30;67.60;;;;;;4885959;29;20167;-84
2021/07/05 10:31:46;;;;;;;3.28;1.77;;;21.30;67.70;;;;;;4908224;28;20056;-89
2021/07/05 10:34:12;;;;;;;2.72;1.98;;;21.30;67.60;;;;;;4951784;28;20042;-85
2021/07/05 10:36:40;;;;;;;3.80;1.65;;;21.40;67.60;;;;;;5033947;28;20020;-83
2021/07/05 10:39:08;;;;;;;2.08;1.58;;;21.50;67.60;;;;;;5025014;28;20041;-82
2021/07/05 10:41:40;;;;;;;2.95;1.63;;;21.50;67.50;;;;;;5040193;28;20033;-84
2021/07/05 10:44:09;;;;;;;2.30;1.60;;;21.50;67.40;;;;;;5030306;28;20484;-84
2021/07/05 10:46:42;;;;;;;2.88;1.50;;;21.60;67.40;;;;;;5037395;28;20040;-84
2021/07/05 10:53:05;;;;;;;1.90;1.42;;;21.60;67.30;;;;;;5005999;28;20095;-85
2021/07/05 10:55:38;;;;;;;2.10;1.40;;;21.70;67.00;;;;;;5041075;28;20052;-85
2021/07/05 10:58:14;;;;;;;1.48;1.33;;;21.70;67.10;;;;;;5040836;28;20036;-85
2021/07/05 11:00:53;;;;;;;1.52;1.40;;;21.80;67.10;;;;;;5048740;28;20487;-85
2021/07/05 11:03:52;;;;;;;1.90;1.48;;;21.80;67.00;;;;;;5057626;28;20380;-85
2021/07/05 11:06:28;;;;;;;2.20;1.40;;;21.80;67.00;;;;;;5041161;28;20488;-85
2021/07/05 11:09:16;;;;;;;2.45;1.60;;;21.90;66.80;;;;;;5036890;28;20033;-92
2021/07/05 11:11:50;;;;;;;2.47;1.58;;;21.90;66.90;;;;;;5039403;28;20104;-80
2021/07/05 11:14:38;;;;;;;2.35;1.75;;;21.90;66.70;;;;;;5055752;28;20028;-80
2021/07/05 11:17:09;;;;;;;2.88;1.48;;;22.00;66.80;;;;;;5046765;28;20559;-83
2021/07/05 11:19:46;;;;;;;2.65;1.48;;;22.10;66.60;;;;;;5054556;28;20025;-80
2021/07/05 11:22:20;;;;;;;1.90;1.60;;;22.10;66.60;;;;;;5036358;28;20029;-82
2021/07/05 11:25:18;;;;;;;2.80;1.92;;;22.10;66.50;;;;;;5030577;28;20048;-82
2021/07/05 11:27:50;;;;;;;2.35;1.50;;;22.10;66.50;;;;;;5031251;28;20036;-81
2021/07/05 11:30:26;;;;;;;2.60;1.63;;;22.20;66.40;;;;;;5032797;28;20029;-84
2021/07/05 11:33:21;;;;;;;2.63;1.35;;;22.20;66.40;;;;;;5037579;28;20028;-83
2021/07/05 11:35:55;;;;;;;1.60;1.33;;;22.20;66.40;;;;;;5038874;28;20033;-85
2021/07/05 11:38:35;;;;;;;2.90;1.60;;;22.30;66.20;;;;;;5045316;28;20028;-86
2021/07/05 11:41:16;;;;;;;2.90;1.70;;;22.30;66.30;;;;;;5059728;28;20068;-86
2021/07/05 11:43:58;;;;;;;2.20;1.65;;;22.30;66.20;;;;;;5056560;28;20042;-84
2021/07/05 11:46:27;;;;;;;2.15;1.60;;;22.40;66.20;;;;;;5052413;28;20035;-84
2021/07/05 11:48:59;;;;;;;3.30;2.00;;;22.40;66.10;;;;;;5059621;28;20053;-84
2021/07/05 11:51:31;;;;;;;2.58;1.83;;;22.40;66.00;;;;;;5059692;28;20028;-84
2021/07/05 11:54:09;;;;;;;2.20;1.55;;;22.50;66.10;;;;;;5073786;28;20034;-84
2021/07/05 11:56:46;;;;;;;2.95;1.83;;;22.40;66.10;;;;;;5070416;28;20111;-84
2021/07/05 11:59:37;;;;;;;2.35;1.80;;;22.40;66.00;;;;;;5061021;28;20019;-84
2021/07/05 12:02:03;;;;;;;2.33;1.65;;;22.50;66.00;;;;;;5059595;28;20055;-83
2021/07/05 12:04:40;;;;;;;3.30;1.73;;;22.50;65.90;;;;;;5059621;28;20050;-86
2021/07/05 12:07:13;;;;;;;1.67;1.52;;;22.50;66.00;;;;;;5059423;28;20024;-84
2021/07/05 12:10:36;;;;;;;;;;;;;;;;;;;;;
2021/07/05 12:30:23;;;;;;;;;;;;;;;;;;;;;
2021/07/05 12:59:41;;;;;;;1.27;1.17;;;22.60;66.30;;;;;;5056460;28;20039;-91
2021/07/05 13:03:29;;;;;;;;;;;;;;;;;;;;;
2021/07/05 13:07:00;;;;;;;1.30;1.20;;;22.70;66.30;;;;;;4914408;29;20129;-93
2021/07/05 13:09:44;;;;;;;;;;;;;;;;;;;;;
2021/07/05 13:12:46;;;;;;;;;;;;;;;;;;;;;
2021/07/05 13:15:50;;;;;;;1.40;1.30;;;22.80;66.00;;;;;;4964568;28;20043;-91
2021/07/05 13:18:38;;;;;;;1.95;1.20;;;22.90;66.10;;;;;;4966841;28;20486;-92
2021/07/05 13:24:34;;;;;;;1.20;1.10;;;22.90;65.90;;;;;;5032978;28;20471;-94
2021/07/05 13:27:26;;;;;;;1.15;1.10;;;23.00;65.90;;;;;;5037008;28;20041;-94
2021/07/05 13:33:44;;;;;;;1.58;1.10;;;23.10;65.80;;;;;;4990616;28;20035;-93
2021/07/05 13:37:30;;;;;;;1.42;1.10;;;23.10;65.80;;;;;;4982224;28;20066;-93
2021/07/05 13:40:45;;;;;;;;;;;;;;;;;;;;;
2021/07/05 13:47:46;;;;;;;1.35;1.10;;;23.20;65.70;;;;;;4959666;28;20487;-93
2021/07/05 13:54:08;;;;;;;1.10;1.00;;;23.20;65.70;;;;;;5016729;28;20196;-94
2021/07/05 13:57:47;;;;;;;1.00;0.90;;;23.20;65.40;;;;;;4989286;28;20038;-94
2021/07/05 14:00:56;;;;;;;0.95;0.93;;;23.20;65.50;;;;;;5025758;28;20375;-94
2021/07/05 14:07:00;;;;;;;;;;;;;;;;;;;;;
2021/07/05 14:32:01;;;;;;;0.80;0.80;;;23.40;65.10;;;;;;5039088;28;20048;-94
2021/07/05 14:39:44;;;;;;;;;;;;;;;;;;;;;
2021/07/05 14:43:32;;;;;;;1.00;0.90;;;23.50;65.10;;;;;;4981367;28;20065;-91
2021/07/05 14:46:54;;;;;;;1.33;1.02;;;23.50;65.10;;;;;;4975832;28;20089;-91
2021/07/05 14:49:35;;;;;;;0.90;0.80;;;23.50;64.80;;;;;;4959599;28;20414;-91
2021/07/05 14:59:38;;;;;;;0.70;0.70;;;23.60;64.80;;;;;;4962437;28;20081;-85
2021/07/05 15:02:03;;;;;;;0.95;0.90;;;23.60;64.70;;;;;;4994277;28;20038;-85
2021/07/05 15:04:29;;;;;;;1.08;1.00;;;23.60;64.70;;;;;;5034552;28;21995;-85
2021/07/05 15:06:55;;;;;;;0.93;0.93;;;23.60;64.70;;;;;;5012653;28;20083;-84
2021/07/05 15:09:21;;;;;;;0.95;0.88;;;23.70;64.70;;;;;;5021155;28;20086;-83
2021/07/05 15:11:46;;;;;;;1.20;0.98;;;23.70;64.60;;;;;;5032502;28;20484;-84
2021/07/05 15:14:12;;;;;;;0.90;0.90;;;23.70;64.50;;;;;;5044664;28;20028;-84
2021/07/05 15:16:38;;;;;;;1.15;1.05;;;23.80;64.50;;;;;;5063261;28;20064;-83
2021/07/05 15:19:04;;;;;;;1.10;0.90;;;23.80;64.40;;;;;;5049731;28;20024;-84
2021/07/05 15:21:30;;;;;;;1.00;1.00;;;23.80;64.40;;;;;;5061205;28;20474;-85
2021/07/05 15:23:55;;;;;;;1.10;1.02;;;23.80;64.30;;;;;;5055775;28;20388;-85
2021/07/05 15:26:22;;;;;;;0.95;0.95;;;23.90;64.40;;;;;;5036200;28;20384;-85
2021/07/05 15:28:48;;;;;;;1.33;1.20;;;23.90;64.30;;;;;;5062470;28;20032;-85
2021/07/05 15:31:14;;;;;;;1.90;1.08;;;23.90;64.20;;;;;;5053183;28;20025;-85
2021/07/05 15:33:42;;;;;;;1.10;1.00;;;23.90;64.10;;;;;;5036236;28;20017;-85
2021/07/05 15:36:09;;;;;;;1.25;1.10;;;23.90;64.10;;;;;;5063456;28;20035;-84
2021/07/05 15:38:35;;;;;;;1.35;1.05;;;23.90;64.10;;;;;;5051250;28;20035;-83
2021/07/05 15:41:01;;;;;;;1.05;0.98;;;23.90;64.00;;;;;;5054166;28;20368;-83
2021/07/05 15:43:26;;;;;;;1.25;1.15;;;23.90;64.00;;;;;;5055700;28;20110;-83
2021/07/05 15:45:53;;;;;;;1.02;0.93;;;24.00;64.00;;;;;;5024391;28;20048;-83
2021/07/05 15:48:19;;;;;;;1.20;1.00;;;24.00;64.00;;;;;;5038747;28;20103;-83
2021/07/05 15:50:45;;;;;;;1.33;1.23;;;24.00;63.90;;;;;;5035884;28;20393;-83
2021/07/05 15:53:11;;;;;;;1.90;1.20;;;24.00;63.90;;;;;;5042506;28;20025;-84
2021/07/05 15:55:39;;;;;;;1.33;1.20;;;24.00;63.90;;;;;;5038623;28;20046;-84
2021/07/05 15:58:05;;;;;;;1.77;1.33;;;24.00;63.90;;;;;;5058185;28;20052;-83
2021/07/05 16:00:33;;;;;;;1.20;1.10;;;24.10;63.90;;;;;;5059178;28;20066;-82
2021/07/05 16:02:59;;;;;;;1.85;1.10;;;24.00;63.80;;;;;;5058865;28;20032;-84
2021/07/05 16:05:25;;;;;;;1.35;1.15;;;24.10;63.80;;;;;;5058759;28;20550;-83
2021/07/05 16:07:51;;;;;;;2.47;1.50;;;24.10;63.80;;;;;;5042801;28;20058;-83
2021/07/05 16:10:17;;;;;;;1.58;1.17;;;24.10;63.70;;;;;;5058853;28;20024;-83
2021/07/05 16:12:43;;;;;;;1.88;1.20;;;24.10;63.70;;;;;;5065669;28;20012;-84
2021/07/05 16:15:10;;;;;;;1.50;1.25;;;24.10;63.60;;;;;;5066430;28;20020;-85
2021/07/05 16:17:36;;;;;;;1.27;1.10;;;24.10;63.60;;;;;;5043221;28;20464;-84
2021/07/05 16:20:03;;;;;;;1.30;1.20;;;24.10;63.50;;;;;;5056272;28;20031;-84
2021/07/05 16:22:29;;;;;;;1.40;1.20;;;24.20;63.60;;;;;;5055460;28;20023;-84
2021/07/05 16:24:55;;;;;;;2.55;1.38;;;24.20;63.60;;;;;;5066555;28;20043;-85
2021/07/05 16:27:21;;;;;;;1.38;1.20;;;24.20;63.50;;;;;;5051336;28;20039;-84
2021/07/05 16:29:47;;;;;;;1.38;1.20;;;24.20;63.50;;;;;;5057763;28;20556;-84
2021/07/05 16:32:15;;;;;;;1.40;1.27;;;24.20;64.10;;;;;;5057944;28;20047;-85
2021/07/05 16:34:47;;;;;;;;;;;24.20;63.50;;;;;;5059621;28;20123;-83
2021/07/05 16:37:13;;;;;;;1.27;1.17;;;24.20;63.50;;;;;;5057607;28;19990;-85
2021/07/05 16:39:40;;;;;;;1.90;1.35;;;24.20;63.30;;;;;;5054344;28;20048;-84
2021/07/05 16:43:05;;;;;;;;;;;;;;;;;;;;;
2021/07/05 16:45:52;;;;;;;1.35;1.05;;;24.20;63.60;;;;;;5087339;28;20040;-84
2021/07/05 16:48:17;;;;;;;1.45;1.25;;;24.20;63.40;;;;;;5057249;28;20039;-84
2021/07/05 16:53:35;;;;;;;2.03;1.02;;;24.30;63.50;;;;;;5074313;28;20074;-82
2021/07/05 16:56:05;;;;;;;1.40;1.20;;;24.30;63.50;;;;;;5074037;28;20056;-82
2021/07/05 16:58:32;;;;;;;3.03;1.20;;;24.30;63.50;;;;;;5038462;28;20110;-83
2021/07/05 17:01:00;;;;;;;1.33;1.15;;;24.30;63.50;;;;;;5037931;28;20032;-83
2021/07/05 17:03:30;;;;;;;1.38;1.27;;;24.40;63.50;;;;;;5037630;28;20051;-84
2021/07/05 17:05:56;;;;;;;1.80;1.15;;;24.40;63.50;;;;;;5034696;28;20040;-83
2021/07/05 17:08:22;;;;;;;2.08;1.20;;;24.40;63.50;;;;;;5034697;28;20021;-84
2021/07/05 17:10:59;;;;;;;1.25;1.15;;;24.40;63.50;;;;;;5038029;28;20039;-83
2021/07/05 17:13:35;;;;;;;1.45;1.10;;;24.40;63.50;;;;;;5029109;28;20041;-81
2021/07/05 17:16:01;;;;;;;2.17;1.23;;;24.40;63.40;;;;;;5029272;28;20017;-83
2021/07/05 17:18:29;;;;;;;1.40;1.08;;;24.50;63.40;;;;;;5040513;28;20031;-82
2021/07/05 17:20:55;;;;;;;1.95;1.13;;;24.40;63.30;;;;;;5049526;28;20025;-81
2021/07/05 17:23:21;;;;;;;1.92;1.30;;;24.50;63.40;;;;;;5043213;28;20053;-83
2021/07/05 17:25:47;;;;;;;1.13;1.02;;;24.50;63.30;;;;;;5033205;28;20444;-84
2021/07/05 17:28:15;;;;;;;1.35;1.10;;;24.50;63.30;;;;;;5026967;28;20033;-84
2021/07/05 17:30:42;;;;;;;1.27;1.00;;;24.50;63.30;;;;;;5036422;28;20025;-85
2021/07/05 17:33:08;;;;;;;1.95;1.10;;;24.50;63.40;;;;;;5032281;28;20036;-84
2021/07/05 17:35:34;;;;;;;1.92;1.20;;;24.50;63.30;;;;;;5026647;28;20453;-85
2021/07/05 17:38:04;;;;;;;0.98;0.90;;;24.50;63.40;;;;;;5032438;28;20044;-84
2021/07/05 17:40:33;;;;;;;1.33;1.00;;;24.50;63.40;;;;;;5035648;28;20031;-85
2021/07/05 17:42:59;;;;;;;1.40;1.30;;;24.50;63.40;;;;;;5031914;28;20056;-84
2021/07/05 17:45:25;;;;;;;2.05;1.23;;;24.50;63.50;;;;;;5034466;28;20057;-84
2021/07/05 17:47:51;;;;;;;1.02;1.00;;;24.50;63.40;;;;;;5024610;28;20075;-84
2021/07/05 17:50:17;;;;;;;1.30;1.00;;;24.50;63.50;;;;;;5052438;28;20056;-84
2021/07/05 17:52:45;;;;;;;1.95;0.98;;;24.60;63.60;;;;;;5032278;28;20025;-84
2021/07/05 17:55:14;;;;;;;1.90;1.10;;;24.50;63.50;;;;;;5033252;28;20115;-85
2021/07/05 17:57:41;;;;;;;0.93;0.93;;;24.50;63.50;;;;;;5045182;28;20040;-87
2021/07/05 18:00:15;;;;;;;1.10;1.00;;;24.50;63.50;;;;;;5052581;28;20032;-84
2021/07/05 18:02:44;;;;;;;1.08;1.00;;;24.50;63.60;;;;;;5066039;28;20035;-81
2021/07/05 18:05:11;;;;;;;1.15;1.00;;;24.50;63.60;;;;;;5052937;28;20097;-83
2021/07/05 18:07:41;;;;;;;1.20;1.10;;;24.50;63.60;;;;;;5049319;28;20435;-82
2021/07/05 18:10:13;;;;;;;0.93;0.93;;;24.50;63.60;;;;;;5053893;28;20463;-82
2021/07/05 18:12:40;;;;;;;0.98;0.82;;;24.50;63.60;;;;;;5062283;28;20039;-81
2021/07/05 18:15:08;;;;;;;1.20;1.02;;;24.50;63.60;;;;;;5056984;28;20127;-82
2021/07/05 18:17:33;;;;;;;1.40;1.02;;;24.50;63.60;;;;;;5040766;28;20089;-81
2021/07/05 18:19:59;;;;;;;0.98;0.80;;;24.50;63.60;;;;;;5054346;28;20036;-83
2021/07/05 18:22:25;;;;;;;0.70;0.70;;;24.50;63.60;;;;;;5062372;28;20028;-83
2021/07/05 18:24:54;;;;;;;1.02;0.90;;;24.50;63.60;;;;;;5057435;28;20476;-82
2021/07/05 18:27:21;;;;;;;0.80;0.80;;;24.50;63.60;;;;;;5053820;28;20472;-82
2021/07/05 18:29:48;;;;;;;0.85;0.82;;;24.50;63.70;;;;;;5062064;28;20040;-82
2021/07/05 18:32:14;;;;;;;0.80;0.80;;;24.40;63.60;;;;;;5056775;28;20024;-82
2021/07/05 18:34:40;;;;;;;0.88;0.88;;;24.40;63.60;;;;;;5059166;28;20399;-83
2021/07/05 18:37:06;;;;;;;0.93;0.93;;;24.50;63.70;;;;;;5058690;28;20009;-83
2021/07/05 18:39:32;;;;;;;1.48;0.90;;;24.40;63.60;;;;;;5058372;28;20032;-83
2021/07/05 18:41:59;;;;;;;2.47;1.00;;;24.40;63.60;;;;;;5059981;28;20110;-86
2021/07/05 18:44:25;;;;;;;0.98;0.95;;;24.40;63.70;;;;;;5052543;28;20171;-84
2021/07/05 18:46:52;;;;;;;0.77;0.77;;;24.40;63.60;;;;;;5054588;28;20027;-83
2021/07/05 18:49:18;;;;;;;0.88;0.88;;;24.40;63.70;;;;;;5051666;28;20036;-84
2021/07/05 18:51:49;;;;;;;1.38;0.88;;;24.40;63.60;;;;;;5056987;28;20115;-84
2021/07/05 18:54:18;;;;;;;1.05;0.90;;;24.30;63.60;;;;;;5058694;28;20067;-84
2021/07/05 18:56:54;;;;;;;1.15;1.00;;;24.30;63.60;;;;;;5055634;28;20051;-83
2021/07/05 18:59:20;;;;;;;1.10;1.00;;;24.30;63.60;;;;;;5057771;28;20031;-84
2021/07/05 19:01:46;;;;;;;1.10;1.00;;;24.30;63.60;;;;;;5054629;28;20049;-84
2021/07/05 19:04:12;;;;;;;0.98;0.93;;;24.30;63.60;;;;;;5054366;28;20633;-83
2021/07/05 19:06:38;;;;;;;1.00;1.00;;;24.30;63.60;;;;;;5055281;28;20131;-84
2021/07/05 19:09:04;;;;;;;1.20;1.10;;;24.30;63.60;;;;;;5066728;28;20107;-83
2021/07/05 19:11:31;;;;;;;1.20;0.98;;;24.20;63.50;;;;;;5057014;28;20083;-84
2021/07/05 19:13:57;;;;;;;1.20;1.10;;;24.20;63.50;;;;;;5058229;28;20456;-83
2021/07/05 19:16:23;;;;;;;1.17;1.08;;;24.20;63.50;;;;;;5061561;28;20055;-83
2021/07/05 19:18:52;;;;;;;1.05;1.00;;;24.20;63.50;;;;;;5055156;28;20064;-85
2021/07/05 19:21:18;;;;;;;1.42;1.15;;;24.20;63.40;;;;;;5058971;28;20084;-83
2021/07/05 19:23:44;;;;;;;3.03;1.30;;;24.20;63.30;;;;;;5052116;28;20087;-82
2021/07/05 19:26:10;;;;;;;1.70;1.30;;;24.10;63.10;;;;;;5059307;28;20440;-83
2021/07/05 19:28:36;;;;;;;2.00;1.40;;;24.10;62.90;;;;;;5056286;28;20028;-86
2021/07/05 19:31:02;;;;;;;2.83;1.63;;;24.10;62.90;;;;;;5060892;28;20032;-83
2021/07/05 19:33:29;;;;;;;2.67;1.70;;;24.00;62.80;;;;;;5041202;28;20039;-85
2021/07/05 19:35:55;;;;;;;2.20;1.52;;;24.00;62.80;;;;;;5059989;28;20088;-85
2021/07/05 19:38:21;;;;;;;1.65;1.48;;;24.00;62.90;;;;;;5074780;28;20052;-84
2021/07/05 19:40:47;;;;;;;1.75;1.40;;;24.00;62.90;;;;;;5056118;28;20093;-85